3°C Temp
0°C Dewpoint
81% Humidity
Temperature
24 KM/H
15 MPH
13 KTS
120°
East South
East

Wind Speed
Mostly Cloudy
Conditions
Pressure 1017.32 (hPa) - 30.04 (in)
Visibility 15.0 (mi) - 24.1 (km)

Current Conditions
CYQM
Location 15(km)
Metar :CYQM 010000Z 12013KT 15SM BKN015 BKN035 BKN055 03/00 A3004 RMK SF5SC1SC1 PRESFR SLP179
Wed 30th November 20:00 pm

Airport
  Metar Aviation API Data Provided by https://www.checkwx.com/ PHP scripts by weather34.com ©2022